Time;durP1;ratioP1;P1;durP2;ratioP2;P2;SDS_P1;SDS_P2;PMS_P1;PMS_P2;Temp;Humidity;BMP_temperature;BMP_pressure;BME280_temperature;BME280_humidity;BME280_pressure;Samples;Min_cycle;Max_cycle;Signal;HPM_P1;HPM_P2
2021/12/15 00:00:14;;;;;;;39.33;20.35;;;;;;;-2.09;78.38;100100.47;4843479;29;20053;-67
2021/12/15 00:02:42;;;;;;;47.97;24.48;;;;;;;-2.05;78.81;100094.34;4843776;29;20044;-67
2021/12/15 00:05:08;;;;;;;44.72;22.58;;;;;;;-1.97;78.92;100115.13;4843819;29;20049;-66
2021/12/15 00:07:33;;;;;;;53.75;23.35;;;;;;;-1.93;78.77;100102.00;4827056;29;20045;-69
2021/12/15 00:09:58;;;;;;;40.85;21.17;;;;;;;-1.87;78.39;100087.97;4843774;29;20056;-70
2021/12/15 00:12:24;;;;;;;44.10;22.08;;;;;;;-1.79;78.75;100090.47;4843850;29;20036;-67
2021/12/15 00:14:50;;;;;;;49.30;21.95;;;;;;;-1.76;78.39;100082.59;4828110;29;20104;-68
2021/12/15 00:17:15;;;;;;;47.05;21.92;;;;;;;-1.70;78.49;100082.53;4847589;29;20049;-68
2021/12/15 00:19:40;;;;;;;43.13;21.98;;;;;;;-1.68;77.67;100080.72;4811486;29;20505;-67
2021/12/15 00:22:06;;;;;;;46.58;22.95;;;;;;;-1.66;77.38;100079.81;4843537;29;20052;-66
2021/12/15 00:24:31;;;;;;;42.75;21.25;;;;;;;-1.65;77.83;100086.78;4843543;29;20068;-69
2021/12/15 00:26:57;;;;;;;46.28;21.13;;;;;;;-1.63;77.58;100077.19;4826942;29;20131;-69
2021/12/15 00:29:23;;;;;;;42.85;20.83;;;;;;;-1.60;77.65;100081.50;4826984;29;20056;-67
2021/12/15 00:31:48;;;;;;;44.35;21.38;;;;;;;-1.57;77.35;100069.22;4811559;29;20473;-68
2021/12/15 00:34:15;;;;;;;43.25;20.83;;;;;;;-1.54;77.65;100063.09;4826845;29;20841;-68
2021/12/15 00:36:44;;;;;;;48.47;23.10;;;;;;;-1.58;77.07;100058.81;4826728;29;20049;-67
2021/12/15 00:39:09;;;;;;;49.03;22.23;;;;;;;-1.63;76.92;100061.50;4837647;29;20107;-66
2021/12/15 00:41:34;;;;;;;39.08;19.98;;;;;;;-1.65;77.72;100075.47;4845160;29;20148;-65
2021/12/15 00:43:59;;;;;;;50.33;22.42;;;;;;;-1.70;77.30;100062.47;4861358;29;20135;-65
2021/12/15 00:46:26;;;;;;;44.03;22.27;;;;;;;-1.70;77.54;100072.06;4844605;29;20044;-66
2021/12/15 00:48:50;;;;;;;46.55;23.45;;;;;;;-1.72;77.25;100073.84;4829332;29;20052;-65
2021/12/15 00:51:16;;;;;;;45.05;22.35;;;;;;;-1.74;77.04;100070.38;4845928;29;20055;-67
2021/12/15 00:53:42;;;;;;;46.45;23.02;;;;;;;-1.83;76.93;100066.16;4845337;29;20507;-67
2021/12/15 00:56:07;;;;;;;54.35;25.10;;;;;;;-1.88;77.12;100073.19;4861606;29;20079;-74
2021/12/15 00:58:34;;;;;;;46.65;21.77;;;;;;;-1.90;77.57;100070.59;4844636;29;20252;-67
2021/12/15 01:01:01;;;;;;;48.70;22.10;;;;;;;-1.89;77.97;100066.22;4861042;29;20131;-68
2021/12/15 01:03:27;;;;;;;47.13;23.02;;;;;;;-1.94;77.31;100057.63;4844346;29;20044;-68
2021/12/15 01:05:59;;;;;;;48.53;22.15;;;;;;;-1.96;78.31;100059.38;4861377;29;20100;-72
2021/12/15 01:08:29;;;;;;;47.55;20.73;;;;;;;-1.95;78.48;100055.88;4844726;29;20044;-73
2021/12/15 01:21:55;;;;;;;49.58;21.08;;;;;;;-2.02;78.65;100041.16;4845625;29;20055;-74
2021/12/15 01:24:21;;;;;;;40.20;17.23;;;;;;;-1.89;78.64;100035.75;4845617;29;20567;-74
2021/12/15 01:26:46;;;;;;;51.25;21.02;;;;;;;-2.02;77.80;100039.41;4829381;29;20495;-71
2021/12/15 01:29:11;;;;;;;50.97;24.00;;;;;;;-2.08;78.20;100038.66;4844973;29;20550;-73
2021/12/15 01:31:37;;;;;;;50.42;21.63;;;;;;;-2.20;78.32;100040.56;4846412;29;20526;-72
2021/12/15 01:34:02;;;;;;;55.65;22.83;;;;;;;-2.31;78.61;100025.91;4862783;29;20056;-72
2021/12/15 01:36:27;;;;;;;52.55;22.40;;;;;;;-2.20;78.24;100034.47;4846219;29;20467;-74
2021/12/15 01:38:51;;;;;;;68.30;27.13;;;;;;;-2.33;78.00;100027.66;4863040;29;20491;-73
2021/12/15 01:41:22;;;;;;;59.58;23.40;;;;;;;-2.44;78.71;100040.00;4846101;29;20590;-73
2021/12/15 01:46:57;;;;;;;44.13;19.38;;;;;;;-2.42;78.61;100028.66;4862835;29;20056;-75
2021/12/15 01:49:37;;;;;;;46.38;19.60;;;;;;;-2.43;78.84;100026.06;4847036;29;20123;-76
2021/12/15 01:52:13;;;;;;;46.28;18.13;;;;;;;-2.38;78.71;100024.28;4846212;29;20056;-74
2021/12/15 01:54:41;;;;;;;40.60;18.45;;;;;;;-2.47;78.29;100034.81;4844148;29;20127;-73
2021/12/15 01:57:08;;;;;;;55.72;25.63;;;;;;;-2.61;79.46;100038.47;4860819;29;20045;-74
2021/12/15 01:59:34;;;;;;;51.40;22.08;;;;;;;-2.58;80.17;100030.59;4828842;29;20052;-73
2021/12/15 02:01:59;;;;;;;45.60;19.77;;;;;;;-2.50;79.96;100035.75;4844533;29;20543;-69
2021/12/15 02:04:25;;;;;;;70.15;26.50;;;;;;;-2.59;79.88;100026.25;4845133;29;20426;-76
2021/12/15 02:06:51;;;;;;;46.72;21.50;;;;;;;-2.51;80.04;100030.53;4843836;29;20515;-71
2021/12/15 02:09:36;;;;;;;51.70;22.00;;;;;;;-2.33;79.53;100028.53;4843688;29;20052;-72
2021/12/15 02:12:01;;;;;;;49.55;21.10;;;;;;;-2.50;79.70;100029.66;4860708;29;20048;-71
2021/12/15 02:14:30;;;;;;;55.65;25.98;;;;;;;-2.57;79.81;100031.47;4828737;29;20044;-73
2021/12/15 02:16:56;;;;;;;44.42;20.08;;;;;;;-2.48;80.32;100035.72;4843999;29;20048;-70
2021/12/15 02:19:21;;;;;;;58.03;27.27;;;;;;;-2.53;80.22;100035.75;4828683;29;20052;-73
2021/12/15 02:21:46;;;;;;;46.72;21.75;;;;;;;-2.44;80.51;100034.78;4844797;29;20058;-73
2021/12/15 02:24:10;;;;;;;43.00;21.15;;;;;;;-2.36;80.49;100028.56;4848285;29;20051;-73
2021/12/15 02:26:39;;;;;;;45.20;20.80;;;;;;;-2.31;80.35;100021.56;4832972;29;20591;-72
2021/12/15 02:29:14;;;;;;;46.55;20.40;;;;;;;-2.20;80.29;100027.50;4865180;29;20048;-71
2021/12/15 02:31:55;;;;;;;40.38;20.02;;;;;;;-2.14;80.23;100023.09;4848209;29;20499;-72
2021/12/15 02:37:22;;;;;;;46.25;20.15;;;;;;;-2.09;79.48;100027.34;4811131;29;20098;-72
2021/12/15 02:40:02;;;;;;;42.45;19.08;;;;;;;-2.07;79.62;100025.56;4826389;29;20560;-73
2021/12/15 02:42:34;;;;;;;48.35;21.17;;;;;;;-2.10;79.66;100017.78;4825573;29;20140;-70
2021/12/15 02:44:59;;;;;;;37.22;20.15;;;;;;;-2.09;79.48;100013.41;4829728;29;20049;-74
2021/12/15 02:47:28;;;;;;;44.95;18.45;;;;;;;-2.01;79.96;100020.25;4830531;29;20055;-72
2021/12/15 02:49:56;;;;;;;36.47;17.85;;;;;;;-2.03;78.97;100016.78;4830268;29;20068;-72
2021/12/15 02:52:21;;;;;;;50.78;21.17;;;;;;;-2.12;78.54;100021.28;4829803;29;20056;-74
2021/12/15 02:54:46;;;;;;;41.47;18.40;;;;;;;-2.17;78.99;100023.13;4831613;29;20077;-76
2021/12/15 02:57:12;;;;;;;42.53;20.45;;;;;;;-2.25;79.18;100024.06;4828002;29;20096;-73
2021/12/15 03:05:08;;;;;;;54.92;21.17;;;;;;;-2.20;79.21;100018.78;4755021;29;20055;-72
2021/12/15 03:08:11;;;;;;;43.35;21.13;;;;;;;-2.25;79.52;100025.81;4770491;29;20430;-70
2021/12/15 03:15:54;;;;;;;44.47;19.27;;;;;;;-2.22;78.79;100007.50;4769766;29;20047;-70
2021/12/15 03:18:23;;;;;;;34.03;17.83;;;;;;;-2.22;79.14;100007.50;4754475;29;20054;-73
2021/12/15 03:20:57;;;;;;;44.35;17.88;;;;;;;-2.19;79.70;100004.84;4755287;29;20082;-74
2021/12/15 03:23:25;;;;;;;34.83;16.20;;;;;;;-2.27;79.14;100010.19;4757167;29;20106;-75
2021/12/15 03:25:51;;;;;;;45.65;19.55;;;;;;;-2.35;79.48;100004.19;4771513;29;20065;-75
2021/12/15 03:36:51;;;;;;;29.95;13.90;;;;;;;-2.24;78.79;100014.47;4689885;30;20120;-71
2021/12/15 03:39:16;;;;;;;33.28;14.93;;;;;;;-2.19;78.60;99999.63;4745613;29;20089;-71
2021/12/15 03:41:41;;;;;;;34.53;14.73;;;;;;;-2.10;78.32;100001.25;4756221;29;20063;-71
2021/12/15 03:44:06;;;;;;;22.90;12.05;;;;;;;-2.01;79.09;100008.94;4770053;29;20051;-67
2021/12/15 03:46:32;;;;;;;36.90;16.70;;;;;;;-2.08;78.22;100002.09;4755014;29;20120;-70
2021/12/15 03:48:57;;;;;;;31.23;14.00;;;;;;;-2.14;78.36;100007.41;4769655;29;20058;-69
2021/12/15 03:51:22;;;;;;;28.73;13.93;;;;;;;-2.17;77.63;99997.88;4739675;29;20101;-75
2021/12/15 03:53:47;;;;;;;31.38;14.20;;;;;;;-2.11;77.53;99997.75;4769077;29;20054;-74
2021/12/15 03:56:14;;;;;;;33.70;14.55;;;;;;;-2.12;77.72;99992.56;4770309;29;20499;-77
2021/12/15 03:58:39;;;;;;;30.33;13.65;;;;;;;-2.02;78.25;100001.97;4756890;29;20135;-74
2021/12/15 04:01:11;;;;;;;26.60;13.07;;;;;;;-1.98;78.16;99994.09;4756365;29;20893;-75
2021/12/15 04:03:39;;;;;;;25.48;13.77;;;;;;;-1.99;77.47;99988.88;4770135;29;20047;-75
2021/12/15 04:06:07;;;;;;;33.28;12.88;;;;;;;-1.96;77.46;99997.53;4781748;29;20066;-74
2021/12/15 04:08:34;;;;;;;25.50;13.02;;;;;;;-1.94;77.77;99982.72;4821989;29;20049;-75
2021/12/15 04:11:05;;;;;;;25.25;12.40;;;;;;;-1.90;77.86;99993.97;4826218;29;20117;-76
2021/12/15 04:13:30;;;;;;;27.90;14.00;;;;;;;-1.85;78.02;99992.16;4826730;29;20056;-71
2021/12/15 04:16:03;;;;;;;27.17;12.82;;;;;;;-1.78;77.74;99992.91;4825855;29;20057;-73
2021/12/15 04:18:28;;;;;;;23.92;12.10;;;;;;;-1.85;76.93;99979.94;4826116;29;20083;-75
2021/12/15 04:20:54;;;;;;;29.08;13.90;;;;;;;-1.89;77.30;99987.84;4809167;29;20064;-76
2021/12/15 04:23:20;;;;;;;30.48;13.48;;;;;;;-1.92;76.92;99983.53;4825516;29;20504;-72
2021/12/15 04:25:49;;;;;;;23.70;11.88;;;;;;;-1.85;77.49;99974.72;4809175;29;20101;-75
2021/12/15 04:28:36;;;;;;;25.75;11.65;;;;;;;-1.77;77.22;99984.19;4824915;29;20128;-74
2021/12/15 04:31:07;;;;;;;18.77;10.63;;;;;;;-1.70;77.37;99975.38;4823798;29;20060;-77
2021/12/15 04:33:55;;;;;;;19.42;10.43;;;;;;;-1.63;77.37;99969.13;4808628;29;20061;-73
2021/12/15 04:36:21;;;;;;;22.05;10.73;;;;;;;-1.65;77.34;99963.06;4825490;29;20045;-73
2021/12/15 11:24:14;;;;;;;21.67;10.95;;;;;;;-0.53;77.15;99863.13;5356174;23;20452;-72
2021/12/15 11:26:39;;;;;;;20.33;10.45;;;;;;;-0.57;77.23;99857.13;4829053;29;20132;-72
2021/12/15 11:29:03;;;;;;;15.80;8.98;;;;;;;-0.57;77.36;99859.75;4828911;29;20135;-69
2021/12/15 11:31:31;;;;;;;23.45;11.02;;;;;;;-0.64;77.52;99866.00;4844956;29;20543;-72
2021/12/15 11:34:02;;;;;;;22.48;11.23;;;;;;;-0.57;77.26;99857.13;4844869;29;20567;-73
2021/12/15 11:36:37;;;;;;;19.17;9.13;;;;;;;-0.54;77.29;99861.41;4828365;29;20187;-71
2021/12/15 11:39:18;;;;;;;22.00;10.23;;;;;;;-0.58;76.98;99868.50;4845399;29;20056;-71
2021/12/15 11:41:49;;;;;;;17.33;9.85;;;;;;;-0.68;77.41;99859.13;4845374;29;20060;-74
2021/12/15 11:44:25;;;;;;;16.00;8.90;;;;;;;-0.73;77.18;99853.13;4828177;29;20048;-72
2021/12/15 11:47:01;;;;;;;16.58;8.40;;;;;;;-0.71;76.98;99851.34;4828168;29;20045;-67
2021/12/15 11:49:30;;;;;;;17.95;8.43;;;;;;;-0.60;77.16;99857.19;4844938;29;20151;-69
2021/12/15 11:52:05;;;;;;;14.40;7.80;;;;;;;-0.56;77.09;99858.81;4827939;29;20075;-69
2021/12/15 11:54:31;;;;;;;18.65;10.00;;;;;;;-0.73;76.39;99869.69;4827369;29;20059;-78
2021/12/15 11:56:58;;;;;;;16.67;8.93;;;;;;;-0.72;76.33;99849.63;4844695;29;20407;-74
2021/12/15 11:59:36;;;;;;;16.98;8.10;;;;;;;-0.64;76.22;99854.66;4846037;29;20174;-76
2021/12/15 12:02:30;;;;;;;15.23;7.85;;;;;;;-0.66;76.16;99862.56;4845295;29;20518;-76
2021/12/15 12:04:57;;;;;;;15.93;9.55;;;;;;;-0.78;75.95;99868.06;4829322;29;20049;-75
2021/12/15 12:07:29;;;;;;;15.85;8.30;;;;;;;-0.93;76.44;99868.41;4844926;29;20047;-75
2021/12/15 12:10:01;;;;;;;13.55;7.80;;;;;;;-0.92;76.95;99865.75;4829323;29;20190;-74
2021/12/15 12:12:33;;;;;;;19.63;8.57;;;;;;;-0.86;76.89;99865.63;4822873;29;20048;-77
2021/12/15 12:14:59;;;;;;;17.70;8.35;;;;;;;-0.85;76.60;99862.09;4829814;29;20400;-76
2021/12/15 12:17:33;;;;;;;18.45;9.60;;;;;;;-0.87;76.85;99865.66;4835635;29;20048;-77
2021/12/15 12:20:17;;;;;;;16.63;9.40;;;;;;;-0.82;76.76;99858.56;4793703;29;20148;-76
2021/12/15 12:22:45;;;;;;;16.83;9.27;;;;;;;-0.95;76.82;99857.09;4811751;29;20054;-76
2021/12/15 12:25:15;;;;;;;13.57;8.45;;;;;;;-0.84;76.99;99862.97;4827632;29;20049;-77
2021/12/15 12:27:42;;;;;;;20.63;9.00;;;;;;;-0.93;76.79;99876.25;4826721;29;20081;-77
2021/12/15 12:30:15;;;;;;;17.63;9.75;;;;;;;-0.92;77.10;99868.38;4811359;29;20501;-76
2021/12/15 12:32:40;;;;;;;19.85;9.48;;;;;;;-0.90;76.95;99873.56;4795548;29;20045;-75
2021/12/15 12:35:08;;;;;;;12.57;7.10;;;;;;;-0.82;76.96;99872.53;4809168;29;20045;-75
2021/12/15 12:37:34;;;;;;;17.98;9.30;;;;;;;-0.94;77.18;99875.41;4808894;29;20457;-76
2021/12/15 12:40:04;;;;;;;15.45;8.32;;;;;;;-0.96;77.39;99877.19;4808875;29;20053;-76
2021/12/15 12:42:33;;;;;;;17.38;9.13;;;;;;;-0.86;77.39;99876.09;4808762;29;20053;-76
2021/12/15 12:45:36;;;;;;;15.27;8.18;;;;;;;-0.70;77.15;99874.00;4825511;29;20049;-75
2021/12/15 12:48:45;;;;;;;11.98;7.05;;;;;;;-0.73;76.89;99866.22;4771695;29;20560;-75
2021/12/15 12:59:48;;;;;;;19.52;9.75;;;;;;;-0.77;77.31;99868.03;4754098;29;20054;-76
2021/12/15 13:02:46;;;;;;;15.52;9.05;;;;;;;-0.84;77.42;99869.06;4739436;29;20500;-76
2021/12/15 13:05:32;;;;;;;15.20;9.55;;;;;;;-0.91;77.66;99867.50;4685865;30;20118;-76
2021/12/15 13:08:02;;;;;;;13.63;7.82;;;;;;;-0.96;78.03;99866.72;4714985;30;20052;-75
2021/12/15 13:10:52;;;;;;;16.60;9.10;;;;;;;-1.03;78.38;99869.50;4700795;30;20078;-76
2021/12/15 13:13:22;;;;;;;15.63;8.52;;;;;;;-1.08;77.96;99872.19;4701208;30;20052;-76
2021/12/15 13:16:02;;;;;;;12.77;7.78;;;;;;;-1.04;78.35;99873.00;4715083;30;20060;-76
2021/12/15 13:18:42;;;;;;;15.63;8.95;;;;;;;-1.10;78.49;99869.59;4715157;30;20064;-76
2021/12/15 13:21:10;;;;;;;14.82;7.82;;;;;;;-1.05;78.41;99866.06;4700719;30;20112;-77
2021/12/15 13:23:50;;;;;;;14.90;8.88;;;;;;;-1.00;78.57;99870.28;4718477;30;20256;-76
2021/12/15 13:29:54;;;;;;;14.82;8.32;;;;;;;-0.90;78.11;99874.41;4717451;30;20111;-70
2021/12/15 13:32:26;;;;;;;15.25;10.48;;;;;;;-0.95;77.88;99876.28;4732470;29;20510;-69
2021/12/15 13:34:56;;;;;;;14.32;8.20;;;;;;;-0.94;77.59;99872.78;4750115;30;20590;-69
2021/12/15 13:37:51;;;;;;;17.92;8.15;;;;;;;-0.96;78.23;99879.78;4749848;29;20588;-70
2021/12/15 13:40:50;;;;;;;13.38;8.00;;;;;;;-0.93;78.30;99866.66;4749950;30;20043;-69
2021/12/15 13:43:39;;;;;;;20.05;10.00;;;;;;;-0.98;78.21;99862.41;4807655;29;20053;-70
2021/12/15 13:46:09;;;;;;;13.88;7.85;;;;;;;-0.95;77.98;99871.06;4807713;29;20383;-71
2021/12/15 13:49:06;;;;;;;18.38;8.88;;;;;;;-1.01;78.15;99868.56;4824277;29;20057;-70
2021/12/15 13:51:50;;;;;;;15.52;8.27;;;;;;;-1.02;78.53;99858.16;4807307;29;20057;-70
2021/12/15 13:54:35;;;;;;;16.13;8.43;;;;;;;-1.17;78.38;99873.25;4824096;29;20196;-72
2021/12/15 13:57:02;;;;;;;;;;;;;;;-1.16;78.69;99871.50;4807678;29;20045;-70
2021/12/15 13:59:40;;;;;;;13.10;7.75;;;;;;;-1.10;78.95;99867.00;4836879;29;20040;-71
2021/12/15 14:02:26;;;;;;;12.85;7.63;;;;;;;-1.04;78.41;99873.00;4822826;29;20040;-71
2021/12/15 14:05:15;;;;;;;13.25;8.35;;;;;;;-1.01;78.89;99868.56;4843722;29;20295;-72
2021/12/15 14:08:00;;;;;;;12.15;7.40;;;;;;;-0.95;78.58;99873.66;4844070;29;20118;-71
2021/12/15 14:10:25;;;;;;;13.20;8.80;;;;;;;-0.96;78.89;99876.31;4851342;29;20626;-71
2021/12/15 14:12:49;;;;;;;12.50;7.80;;;;;;;-1.00;78.57;99872.03;4848907;29;20624;-73
2021/12/15 14:15:36;;;;;;;14.25;8.30;;;;;;;-1.01;78.73;99871.16;4834575;29;20140;-70
2021/12/15 14:18:24;;;;;;;13.60;7.65;;;;;;;-1.04;78.60;99880.84;4850254;29;20076;-73
2021/12/15 14:20:57;;;;;;;15.93;8.65;;;;;;;-1.07;78.90;99884.38;4847394;29;20079;-71
2021/12/15 14:23:32;;;;;;;13.20;7.65;;;;;;;-1.05;79.04;99884.38;4846360;29;20061;-69
2021/12/15 14:25:59;;;;;;;16.38;7.93;;;;;;;-1.06;78.91;99882.63;4835696;29;20574;-72
2021/12/15 14:28:56;;;;;;;15.32;8.25;;;;;;;-1.04;79.09;99886.94;4795431;29;20054;-71
2021/12/15 14:31:29;;;;;;;12.23;7.22;;;;;;;-1.01;79.11;99892.09;4810174;29;20048;-71
2021/12/15 14:33:59;;;;;;;14.43;8.85;;;;;;;-1.02;79.04;99890.41;4828227;29;20068;-71
2021/12/15 14:36:30;;;;;;;10.73;6.75;;;;;;;-0.91;79.05;99884.94;4811021;29;20069;-70
2021/12/15 14:38:57;;;;;;;13.75;8.30;;;;;;;-0.95;78.69;99881.53;4833753;29;20504;-71
2021/12/15 14:41:28;;;;;;;13.95;8.20;;;;;;;-0.91;78.86;99879.72;4845825;29;20075;-71
2021/12/15 14:44:02;;;;;;;13.48;8.18;;;;;;;-0.95;78.56;99891.13;4828980;29;20037;-70
2021/12/15 14:46:36;;;;;;;12.18;7.43;;;;;;;-0.86;78.66;99902.25;4845346;29;20053;-71
2021/12/15 14:49:09;;;;;;;13.43;7.40;;;;;;;-0.95;78.90;99892.00;4828842;29;20128;-71
2021/12/15 14:51:39;;;;;;;14.10;8.38;;;;;;;-0.99;78.78;99884.22;4828716;29;20503;-71
2021/12/15 14:54:05;;;;;;;15.38;8.77;;;;;;;-1.00;79.33;99898.19;4828997;29;20097;-70
2021/12/15 14:56:50;;;;;;;13.35;8.07;;;;;;;-0.96;78.84;99887.66;4847571;29;20041;-72
2021/12/15 14:59:21;;;;;;;13.02;8.20;;;;;;;-0.96;79.16;99895.50;4850602;29;20132;-70
2021/12/15 15:01:51;;;;;;;12.32;7.97;;;;;;;-0.87;78.92;99889.19;4846771;29;20048;-71
2021/12/15 15:04:20;;;;;;;13.25;8.15;;;;;;;-0.85;79.24;99887.41;4845585;29;20045;-71
2021/12/15 15:06:46;;;;;;;14.27;8.60;;;;;;;-0.85;79.39;99901.38;4825240;29;20045;-71
2021/12/15 15:09:33;;;;;;;14.52;7.75;;;;;;;-0.79;79.13;99903.00;4813267;29;20041;-71
2021/12/15 15:12:03;;;;;;;20.73;10.07;;;;;;;-0.90;79.37;99899.72;4813493;29;20464;-70
2021/12/15 15:15:00;;;;;;;17.20;10.18;;;;;;;-0.91;79.76;99898.91;4845268;29;20133;-71
2021/12/15 15:17:35;;;;;;;13.90;7.93;;;;;;;-0.90;79.87;99891.88;4839882;29;20072;-70
2021/12/15 15:20:18;;;;;;;23.42;10.77;;;;;;;-0.92;80.48;99889.31;4845441;29;20132;-71
2021/12/15 15:22:45;;;;;;;19.05;11.32;;;;;;;-0.98;80.16;99891.19;4845194;29;20049;-72
2021/12/15 15:25:37;;;;;;;14.77;8.90;;;;;;;-0.88;80.42;99892.72;4844916;29;20063;-71
2021/12/15 15:28:19;;;;;;;19.30;10.43;;;;;;;-0.93;80.54;99894.56;4845141;29;20110;-70
2021/12/15 15:30:46;;;;;;;13.52;7.97;;;;;;;-0.89;80.04;99893.59;4827312;29;20045;-72
2021/12/15 15:33:21;;;;;;;12.18;7.28;;;;;;;-0.82;80.19;99889.97;4844884;29;20488;-69
2021/12/15 15:35:56;;;;;;;;;;;;;;;-0.71;80.16;99882.75;4828810;29;20056;-70
2021/12/15 15:38:35;;;;;;;13.27;7.93;;;;;;;-0.73;80.17;99887.16;4828161;29;19926;-70
2021/12/15 15:41:08;;;;;;;11.27;7.57;;;;;;;-0.73;79.94;99887.16;4828131;29;20128;-71
2021/12/15 15:43:45;;;;;;;13.80;8.75;;;;;;;-0.76;80.11;99885.47;4828196;29;20048;-70
2021/12/15 15:46:19;;;;;;;14.00;8.57;;;;;;;-0.79;79.72;99884.69;4797676;29;20052;-71
2021/12/15 15:48:49;;;;;;;15.00;9.00;;;;;;;-0.90;80.13;99884.88;4828231;29;20061;-70
2021/12/15 15:51:24;;;;;;;14.57;8.63;;;;;;;-0.91;80.19;99877.97;4844673;29;20099;-70
2021/12/15 15:53:55;;;;;;;16.23;9.45;;;;;;;-0.86;80.33;99864.75;4818890;29;20046;-72
2021/12/15 15:56:23;;;;;;;18.38;8.80;;;;;;;-0.86;80.61;99875.22;4816540;29;20500;-71
2021/12/15 15:58:52;;;;;;;14.05;8.40;;;;;;;-0.84;80.29;99881.28;4834107;29;20113;-70
2021/12/15 16:01:19;;;;;;;18.55;9.27;;;;;;;-0.93;80.69;99879.75;4818291;29;20041;-72
2021/12/15 16:03:44;;;;;;;12.85;8.20;;;;;;;-0.85;80.47;99883.03;4816725;29;20055;-70
2021/12/15 16:06:15;;;;;;;17.13;9.50;;;;;;;-0.92;80.49;99881.47;4818236;29;20120;-70
2021/12/15 16:08:44;;;;;;;17.83;9.90;;;;;;;-0.90;80.52;99889.25;4816026;29;20116;-71
2021/12/15 16:11:21;;;;;;;16.00;8.73;;;;;;;-0.80;80.77;99882.97;4821153;29;20045;-70
2021/12/15 16:13:51;;;;;;;16.83;9.85;;;;;;;-0.84;81.00;99881.28;4843906;29;20156;-70
2021/12/15 16:16:29;;;;;;;17.95;10.10;;;;;;;-0.82;80.77;99882.13;4844113;29;20048;-70
2021/12/15 16:19:00;;;;;;;17.75;9.40;;;;;;;-0.86;80.51;99886.56;4812105;29;20104;-70
2021/12/15 16:24:03;;;;;;;16.65;9.95;;;;;;;-0.79;80.21;99874.22;4827223;29;20061;-71
2021/12/15 16:26:31;;;;;;;19.67;10.18;;;;;;;-0.81;80.40;99862.91;4844016;29;20497;-71
2021/12/15 16:29:11;;;;;;;17.00;9.63;;;;;;;-0.80;80.25;99869.88;4846475;29;20124;-76
2021/12/15 16:31:52;;;;;;;16.73;9.77;;;;;;;-0.76;80.44;99869.75;4815702;29;20080;-77
2021/12/15 16:34:33;;;;;;;15.85;8.55;;;;;;;-0.73;80.14;99872.31;4829945;29;20069;-77
2021/12/15 16:37:03;;;;;;;16.55;9.50;;;;;;;-0.91;80.42;99861.41;4814658;29;20051;-77
2021/12/15 16:39:48;;;;;;;19.33;8.73;;;;;;;-0.81;80.74;99865.53;4828900;29;20045;-78
2021/12/15 16:42:21;;;;;;;16.63;8.90;;;;;;;-0.90;80.51;99863.94;4827724;29;20097;-75
2021/12/15 16:44:53;;;;;;;14.97;8.57;;;;;;;-0.89;80.75;99864.81;4844890;29;20041;-75
2021/12/15 16:47:28;;;;;;;18.42;9.57;;;;;;;-0.94;80.59;99862.31;4813099;29;20297;-75
2021/12/15 16:49:57;;;;;;;16.63;9.48;;;;;;;-1.02;80.46;99866.84;4844399;29;20076;-74
2021/12/15 16:52:33;;;;;;;18.83;9.25;;;;;;;-1.09;80.10;99870.47;4844510;29;20055;-76
2021/12/15 16:55:11;;;;;;;17.02;9.93;;;;;;;-1.01;80.67;99860.69;4845115;29;20105;-73
2021/12/15 16:57:40;;;;;;;19.05;8.70;;;;;;;-0.92;80.44;99864.91;4828427;29;20183;-75
2021/12/15 17:00:18;;;;;;;18.20;9.45;;;;;;;-0.91;80.24;99870.09;4844252;29;20044;-74
2021/12/15 17:02:51;;;;;;;17.55;9.35;;;;;;;-0.90;80.18;99863.94;4827468;29;20123;-74
2021/12/15 17:05:32;;;;;;;13.43;7.65;;;;;;;-0.84;80.04;99857.75;4811793;29;20051;-75
2021/12/15 17:08:23;;;;;;;14.90;7.93;;;;;;;-0.85;80.11;99859.50;4826660;29;20044;-74
2021/12/15 17:10:55;;;;;;;16.20;8.60;;;;;;;-0.83;79.76;99859.47;4811897;29;20141;-73
2021/12/15 17:13:31;;;;;;;16.77;9.27;;;;;;;-0.90;80.36;99869.19;4826731;29;20052;-77
2021/12/15 17:16:00;;;;;;;17.70;9.65;;;;;;;-0.88;79.96;99869.16;4826683;29;20086;-74
2021/12/15 17:18:31;;;;;;;17.63;10.43;;;;;;;-1.01;80.25;99852.84;4844130;29;20047;-77
2021/12/15 17:21:11;;;;;;;19.48;10.20;;;;;;;-0.89;80.65;99859.56;4843654;29;20064;-73
2021/12/15 17:23:48;;;;;;;15.60;8.88;;;;;;;-0.94;80.33;99853.59;4843325;29;20064;-72
2021/12/15 17:26:21;;;;;;;14.80;8.52;;;;;;;-0.82;80.80;99853.34;4843378;29;20045;-73
2021/12/15 17:29:23;;;;;;;18.45;9.27;;;;;;;-0.74;79.98;99856.63;4844253;29;20049;-75
2021/12/15 17:31:54;;;;;;;14.82;8.57;;;;;;;-0.75;80.23;99849.69;4828303;29;20048;-75
2021/12/15 17:34:26;;;;;;;14.45;8.07;;;;;;;-0.66;80.14;99853.84;4812121;29;20048;-75
2021/12/15 17:36:53;;;;;;;16.42;9.27;;;;;;;-0.77;79.90;99843.59;4828390;29;20139;-73
2021/12/15 17:39:49;;;;;;;16.25;8.98;;;;;;;-0.74;79.74;99843.53;4840271;29;20083;-76
2021/12/15 17:42:30;;;;;;;14.73;8.75;;;;;;;-0.74;79.95;99843.53;4842357;29;20049;-75
2021/12/15 17:45:08;;;;;;;15.75;9.13;;;;;;;-0.71;79.61;99838.25;4825957;29;20037;-75
2021/12/15 17:47:43;;;;;;;16.27;8.63;;;;;;;-0.64;79.92;99833.72;4826236;29;20420;-75
2021/12/15 17:50:17;;;;;;;17.88;10.20;;;;;;;-0.62;79.41;99824.09;4826566;29;20474;-74
2021/12/15 17:52:51;;;;;;;16.35;9.68;;;;;;;-0.65;79.80;99830.25;4826749;29;20049;-77
2021/12/15 17:55:31;;;;;;;20.05;9.65;;;;;;;-0.64;79.90;99824.13;4812007;29;20045;-76
2021/12/15 17:58:03;;;;;;;13.82;9.43;;;;;;;-0.74;79.53;99825.22;4829468;29;20109;-74
2021/12/15 18:00:37;;;;;;;17.45;8.85;;;;;;;-0.64;80.00;99829.34;4817288;29;20091;-74
2021/12/15 18:03:32;;;;;;;16.50;9.02;;;;;;;-0.70;79.79;99828.63;4844745;29;20053;-76
2021/12/15 18:06:01;;;;;;;18.00;8.85;;;;;;;-0.75;79.64;99831.34;4811095;29;20173;-74
2021/12/15 18:08:27;;;;;;;14.25;7.82;;;;;;;-0.70;79.51;99831.25;4815712;29;20474;-75
2021/12/15 18:11:06;;;;;;;17.73;9.07;;;;;;;-0.74;79.86;99820.84;4831749;29;20520;-74
2021/12/15 18:13:43;;;;;;;14.90;9.05;;;;;;;-0.91;79.95;99819.53;4847601;29;20101;-75
2021/12/15 18:16:09;;;;;;;14.00;8.13;;;;;;;-0.95;80.08;99828.31;4830852;29;20077;-73
2021/12/15 18:18:34;;;;;;;15.00;9.32;;;;;;;-1.05;80.62;99822.44;4840042;29;20528;-75
2021/12/15 18:21:03;;;;;;;18.63;8.65;;;;;;;-0.96;80.63;99823.97;4801674;29;20504;-74
2021/12/15 18:23:29;;;;;;;16.13;9.10;;;;;;;-1.14;80.79;99823.50;4845087;29;20087;-74
2021/12/15 18:26:26;;;;;;;18.95;10.57;;;;;;;-1.01;80.81;99817.97;4831190;29;20084;-76
2021/12/15 18:29:19;;;;;;;16.50;8.90;;;;;;;-1.11;80.72;99818.19;4844925;29;20100;-74
2021/12/15 18:31:49;;;;;;;15.82;8.90;;;;;;;-1.14;81.55;99801.72;4813797;29;20052;-75
2021/12/15 18:34:16;;;;;;;12.88;8.30;;;;;;;-0.99;81.41;99795.25;4825102;29;20049;-75
2021/12/15 18:36:45;;;;;;;14.27;7.53;;;;;;;-0.96;80.81;99792.59;4808178;29;20081;-75
2021/12/15 18:39:15;;;;;;;12.85;8.23;;;;;;;-0.87;80.61;99797.59;4778298;29;20050;-74
2021/12/15 18:41:46;;;;;;;14.18;8.90;;;;;;;-0.94;80.51;99796.03;4825314;29;20107;-80
2021/12/15 18:44:18;;;;;;;12.50;7.57;;;;;;;-0.89;80.43;99788.91;4826113;29;20112;-75
2021/12/15 18:46:50;;;;;;;11.07;6.60;;;;;;;-0.92;80.27;99787.25;4825483;29;20132;-73
2021/12/15 18:49:20;;;;;;;12.45;8.20;;;;;;;-1.10;80.60;99780.66;4825416;29;20492;-74
2021/12/15 18:51:53;;;;;;;15.48;8.40;;;;;;;-1.14;80.70;99776.41;4794854;29;20121;-74
2021/12/15 18:54:20;;;;;;;13.93;9.30;;;;;;;-1.19;81.02;99780.00;4810055;29;20049;-74
2021/12/15 18:56:51;;;;;;;15.23;8.52;;;;;;;-1.25;81.87;99770.56;4825743;29;20045;-76
2021/12/15 18:59:22;;;;;;;14.98;9.57;;;;;;;-1.20;81.80;99780.91;4794505;29;20049;-74
2021/12/15 19:01:50;;;;;;;17.85;8.43;;;;;;;-1.14;81.79;99771.19;4826079;29;20096;-75
2021/12/15 19:04:16;;;;;;;13.18;7.80;;;;;;;-1.08;81.83;99777.16;4810940;29;20050;-76
2021/12/15 19:06:45;;;;;;;14.02;8.70;;;;;;;-1.11;81.66;99763.25;4829080;29;20053;-75
2021/12/15 19:09:14;;;;;;;13.20;7.80;;;;;;;-1.00;81.10;99765.63;4813153;29;20049;-76
2021/12/15 19:11:41;;;;;;;11.93;7.13;;;;;;;-0.94;81.22;99762.00;4813495;29;20568;-74
2021/12/15 19:14:08;;;;;;;11.38;7.25;;;;;;;-0.88;81.35;99759.25;4796498;29;20056;-77
2021/12/15 19:16:34;;;;;;;11.07;6.25;;;;;;;-0.82;80.99;99748.66;4828601;29;20060;-74
2021/12/15 19:19:01;;;;;;;9.77;6.00;;;;;;;-0.83;80.75;99742.53;4810421;29;20453;-68